Pagrindinis puslapis
METAR-TAF:

METAR-TAF

Oro uostai :

Konija, Turkija

platuma: 37-58N, ilguma: 032-33E, Aukštis: 1032 m

Dabartinis oras

Ataskaita buvo paskelbta 57 minutes, ne 23:50 UTC
Vėjas 6 kt iš Šiaurės Vakarų
Temperatūra 12°C
Drėgmė 58%
Slėgis 1019 hPa
Matomumas 10 km arba daugiau
nėra debesų žemiau 1500 m ir nėra kamuolinių lietaus debesų

METAR: LTAN 042350Z 32006KT CAVOK 12/04 Q1019 NOSIG

Laikas: 03:47 (00:47 UTC)

Prognozė

Ataskaita buvo paskelbta 2 valandos ir 7 minutes, ne 22:40 UTC
Prognozė galioja nuo 05 metu 00 UTC su 05 metu 09 UTC
Vėjas 7 kt iš Šiaurės/Šiaurės Vakarų
Matomumas 10 km arba daugiau
nėra debesų žemiau 1500 m ir nėra kamuolinių lietaus debesų

TAF: LTAN 042240Z 0500/0509 34007KT CAVOK

Orai ataskaitas ir orų prognozės (METAR, TAF).

turimą stotys yra geltonos ir raudonos taškus žemėlapyje.

Perkelti pele per norėdami pamatyti stoties vardą.

Tada spustelėkite, norėdami matyti oro stebėjimo ir prognozės.

Norėdami pakeisti žemėlapį: spustelėkite ant žalios mygtukų su juodo kryžiaus žemyn,; žalią mygtuką su brūkšneliu, jei norite nutolinti; arba žalių rodyklių gretimoms žemėlapius.


METAR-TAF: